sensor_id;sensor_type;location;lat;lon;timestamp;P1;durP1;ratioP1;P2;durP2;ratioP2
43819;SDS011;67762;52.476;6.046;2023-05-08T00:01:49;1999.90;;;999.90;;
43819;SDS011;67762;52.476;6.046;2023-05-08T00:04:15;1999.90;;;999.90;;
43819;SDS011;67762;52.476;6.046;2023-05-08T00:06:41;1999.90;;;999.90;;
43819;SDS011;67762;52.476;6.046;2023-05-08T00:09:07;1999.90;;;999.90;;
43819;SDS011;67762;52.476;6.046;2023-05-08T00:11:32;1999.90;;;999.90;;
43819;SDS011;67762;52.476;6.046;2023-05-08T00:13:58;1999.90;;;999.90;;
43819;SDS011;67762;52.476;6.046;2023-05-08T00:16:24;1999.90;;;999.90;;
43819;SDS011;67762;52.476;6.046;2023-05-08T00:18:49;1999.90;;;999.90;;
43819;SDS011;67762;52.476;6.046;2023-05-08T00:21:17;1999.90;;;999.90;;
43819;SDS011;67762;52.476;6.046;2023-05-08T00:23:43;1999.90;;;999.90;;
43819;SDS011;67762;52.476;6.046;2023-05-08T00:26:08;1999.90;;;999.90;;
43819;SDS011;67762;52.476;6.046;2023-05-08T00:28:34;1999.90;;;999.90;;
43819;SDS011;67762;52.476;6.046;2023-05-08T00:30:59;1999.90;;;999.90;;
43819;SDS011;67762;52.476;6.046;2023-05-08T00:33:28;1999.90;;;999.90;;
43819;SDS011;67762;52.476;6.046;2023-05-08T00:36:00;1999.90;;;999.90;;
43819;SDS011;67762;52.476;6.046;2023-05-08T00:38:33;1999.90;;;999.90;;
43819;SDS011;67762;52.476;6.046;2023-05-08T00:41:00;1999.90;;;999.90;;
43819;SDS011;67762;52.476;6.046;2023-05-08T00:43:26;1999.90;;;999.90;;
43819;SDS011;67762;52.476;6.046;2023-05-08T00:45:55;1999.90;;;999.90;;
43819;SDS011;67762;52.476;6.046;2023-05-08T00:48:22;1999.90;;;999.90;;
43819;SDS011;67762;52.476;6.046;2023-05-08T00:50:49;1999.90;;;999.90;;
43819;SDS011;67762;52.476;6.046;2023-05-08T00:53:18;1999.90;;;999.90;;
43819;SDS011;67762;52.476;6.046;2023-05-08T00:55:44;1999.90;;;999.90;;
43819;SDS011;67762;52.476;6.046;2023-05-08T00:58:10;1999.90;;;999.90;;
43819;SDS011;67762;52.476;6.046;2023-05-08T01:00:38;1999.90;;;999.90;;
43819;SDS011;67762;52.476;6.046;2023-05-08T01:03:06;1999.90;;;999.90;;
43819;SDS011;67762;52.476;6.046;2023-05-08T01:05:34;1999.90;;;999.90;;
43819;SDS011;67762;52.476;6.046;2023-05-08T01:08:00;1999.90;;;999.90;;
43819;SDS011;67762;52.476;6.046;2023-05-08T01:10:29;1999.90;;;999.90;;
43819;SDS011;67762;52.476;6.046;2023-05-08T01:15:53;1999.90;;;999.90;;
43819;SDS011;67762;52.476;6.046;2023-05-08T01:18:41;1999.90;;;999.90;;
43819;SDS011;67762;52.476;6.046;2023-05-08T01:21:15;1999.90;;;999.90;;
43819;SDS011;67762;52.476;6.046;2023-05-08T01:26:44;1999.90;;;999.90;;
43819;SDS011;67762;52.476;6.046;2023-05-08T01:32:25;1999.90;;;999.90;;
43819;SDS011;67762;52.476;6.046;2023-05-08T01:41:09;1999.90;;;999.90;;
43819;SDS011;67762;52.476;6.046;2023-05-08T01:46:26;1999.90;;;999.90;;
43819;SDS011;67762;52.476;6.046;2023-05-08T01:51:27;1999.90;;;999.90;;
43819;SDS011;67762;52.476;6.046;2023-05-08T01:54:03;1999.90;;;999.90;;
43819;SDS011;67762;52.476;6.046;2023-05-08T01:56:32;1999.90;;;999.90;;
43819;SDS011;67762;52.476;6.046;2023-05-08T01:58:59;1999.90;;;999.90;;
43819;SDS011;67762;52.476;6.046;2023-05-08T02:01:28;1999.90;;;999.90;;
43819;SDS011;67762;52.476;6.046;2023-05-08T02:03:57;1999.90;;;999.90;;
43819;SDS011;67762;52.476;6.046;2023-05-08T02:06:25;1999.90;;;999.90;;
43819;SDS011;67762;52.476;6.046;2023-05-08T02:08:52;1999.90;;;999.90;;
43819;SDS011;67762;52.476;6.046;2023-05-08T02:11:18;1999.90;;;999.90;;
43819;SDS011;67762;52.476;6.046;2023-05-08T02:13:46;1999.90;;;999.90;;
43819;SDS011;67762;52.476;6.046;2023-05-08T02:16:13;1999.90;;;999.90;;
43819;SDS011;67762;52.476;6.046;2023-05-08T02:18:41;1999.90;;;999.90;;
43819;SDS011;67762;52.476;6.046;2023-05-08T02:21:11;1999.90;;;999.90;;
43819;SDS011;67762;52.476;6.046;2023-05-08T02:23:39;1999.90;;;999.90;;
43819;SDS011;67762;52.476;6.046;2023-05-08T02:26:07;1999.90;;;999.90;;
43819;SDS011;67762;52.476;6.046;2023-05-08T02:28:33;1999.90;;;999.90;;
43819;SDS011;67762;52.476;6.046;2023-05-08T02:31:01;1999.90;;;999.90;;
43819;SDS011;67762;52.476;6.046;2023-05-08T02:33:27;1999.90;;;999.90;;
43819;SDS011;67762;52.476;6.046;2023-05-08T02:35:56;1999.90;;;999.90;;
43819;SDS011;67762;52.476;6.046;2023-05-08T02:38:23;1999.90;;;999.90;;
43819;SDS011;67762;52.476;6.046;2023-05-08T02:40:52;1999.90;;;999.90;;
43819;SDS011;67762;52.476;6.046;2023-05-08T02:43:21;1999.90;;;999.90;;
43819;SDS011;67762;52.476;6.046;2023-05-08T02:45:49;1999.90;;;999.90;;
43819;SDS011;67762;52.476;6.046;2023-05-08T02:48:25;1999.90;;;999.90;;
43819;SDS011;67762;52.476;6.046;2023-05-08T02:53:51;1999.90;;;999.90;;
43819;SDS011;67762;52.476;6.046;2023-05-08T02:56:39;1999.90;;;999.90;;
43819;SDS011;67762;52.476;6.046;2023-05-08T03:01:59;1999.90;;;999.90;;
43819;SDS011;67762;52.476;6.046;2023-05-08T03:04:35;1999.90;;;999.90;;
43819;SDS011;67762;52.476;6.046;2023-05-08T03:07:04;1999.90;;;999.90;;
43819;SDS011;67762;52.476;6.046;2023-05-08T03:09:40;1999.90;;;999.90;;
43819;SDS011;67762;52.476;6.046;2023-05-08T03:12:19;1999.90;;;999.90;;
43819;SDS011;67762;52.476;6.046;2023-05-08T03:14:57;1999.90;;;999.90;;
43819;SDS011;67762;52.476;6.046;2023-05-08T03:17:30;1999.90;;;999.90;;
43819;SDS011;67762;52.476;6.046;2023-05-08T03:19:59;1999.90;;;999.90;;
43819;SDS011;67762;52.476;6.046;2023-05-08T03:22:30;1999.90;;;999.90;;
43819;SDS011;67762;52.476;6.046;2023-05-08T03:24:59;1999.90;;;999.90;;
43819;SDS011;67762;52.476;6.046;2023-05-08T03:27:27;1999.90;;;999.90;;
43819;SDS011;67762;52.476;6.046;2023-05-08T03:29:55;1999.90;;;999.90;;
43819;SDS011;67762;52.476;6.046;2023-05-08T03:32:26;1999.90;;;999.90;;
43819;SDS011;67762;52.476;6.046;2023-05-08T03:34:53;1999.90;;;999.90;;
43819;SDS011;67762;52.476;6.046;2023-05-08T03:37:20;1999.90;;;999.90;;
43819;SDS011;67762;52.476;6.046;2023-05-08T03:39:46;1999.90;;;999.90;;
43819;SDS011;67762;52.476;6.046;2023-05-08T03:42:11;1999.90;;;999.90;;
43819;SDS011;67762;52.476;6.046;2023-05-08T03:44:47;1999.90;;;999.90;;
43819;SDS011;67762;52.476;6.046;2023-05-08T03:47:15;1999.90;;;999.90;;
43819;SDS011;67762;52.476;6.046;2023-05-08T03:49:45;1999.90;;;999.90;;
43819;SDS011;67762;52.476;6.046;2023-05-08T03:52:12;1999.90;;;999.90;;
43819;SDS011;67762;52.476;6.046;2023-05-08T03:54:39;1999.90;;;999.90;;
43819;SDS011;67762;52.476;6.046;2023-05-08T03:57:05;1999.90;;;999.90;;
43819;SDS011;67762;52.476;6.046;2023-05-08T04:05:36;1999.90;;;999.90;;
43819;SDS011;67762;52.476;6.046;2023-05-08T04:08:08;1999.90;;;999.90;;
43819;SDS011;67762;52.476;6.046;2023-05-08T04:10:48;1999.90;;;999.90;;
43819;SDS011;67762;52.476;6.046;2023-05-08T04:13:21;1999.90;;;999.90;;
43819;SDS011;67762;52.476;6.046;2023-05-08T04:16:06;1999.90;;;999.90;;
43819;SDS011;67762;52.476;6.046;2023-05-08T04:18:39;1999.90;;;999.90;;
43819;SDS011;67762;52.476;6.046;2023-05-08T04:21:10;1999.90;;;999.90;;
43819;SDS011;67762;52.476;6.046;2023-05-08T04:23:39;1999.90;;;999.90;;
43819;SDS011;67762;52.476;6.046;2023-05-08T04:26:08;1999.90;;;999.90;;
43819;SDS011;67762;52.476;6.046;2023-05-08T04:28:35;1999.90;;;999.90;;
43819;SDS011;67762;52.476;6.046;2023-05-08T04:31:01;1999.90;;;999.90;;
43819;SDS011;67762;52.476;6.046;2023-05-08T04:33:29;1999.90;;;999.90;;
43819;SDS011;67762;52.476;6.046;2023-05-08T04:35:55;1999.90;;;999.90;;
43819;SDS011;67762;52.476;6.046;2023-05-08T04:38:25;1999.90;;;999.90;;
43819;SDS011;67762;52.476;6.046;2023-05-08T04:40:51;1999.90;;;999.90;;
43819;SDS011;67762;52.476;6.046;2023-05-08T04:43:17;1999.90;;;999.90;;
43819;SDS011;67762;52.476;6.046;2023-05-08T04:45:42;1999.90;;;999.90;;
43819;SDS011;67762;52.476;6.046;2023-05-08T04:48:08;1999.90;;;999.90;;
43819;SDS011;67762;52.476;6.046;2023-05-08T04:50:34;1999.90;;;999.90;;
43819;SDS011;67762;52.476;6.046;2023-05-08T04:52:59;1999.90;;;999.90;;
43819;SDS011;67762;52.476;6.046;2023-05-08T04:55:25;1999.90;;;999.90;;
43819;SDS011;67762;52.476;6.046;2023-05-08T04:57:51;1999.90;;;999.90;;
43819;SDS011;67762;52.476;6.046;2023-05-08T05:00:17;1999.90;;;999.90;;
43819;SDS011;67762;52.476;6.046;2023-05-08T05:02:44;1999.90;;;999.90;;
43819;SDS011;67762;52.476;6.046;2023-05-08T05:05:10;1999.90;;;999.90;;
43819;SDS011;67762;52.476;6.046;2023-05-08T05:07:35;1999.90;;;999.90;;
43819;SDS011;67762;52.476;6.046;2023-05-08T05:10:01;1999.90;;;999.90;;
43819;SDS011;67762;52.476;6.046;2023-05-08T05:12:30;1999.90;;;999.90;;
43819;SDS011;67762;52.476;6.046;2023-05-08T05:14:55;1999.90;;;999.90;;
43819;SDS011;67762;52.476;6.046;2023-05-08T05:17:22;1999.90;;;999.90;;
43819;SDS011;67762;52.476;6.046;2023-05-08T05:19:48;1999.90;;;999.90;;
43819;SDS011;67762;52.476;6.046;2023-05-08T05:22:13;1999.90;;;999.90;;
43819;SDS011;67762;52.476;6.046;2023-05-08T05:24:39;1999.90;;;999.90;;
43819;SDS011;67762;52.476;6.046;2023-05-08T05:27:06;1999.90;;;999.90;;
43819;SDS011;67762;52.476;6.046;2023-05-08T05:29:32;1999.90;;;999.90;;
43819;SDS011;67762;52.476;6.046;2023-05-08T05:31:58;1999.90;;;999.90;;
43819;SDS011;67762;52.476;6.046;2023-05-08T05:34:23;1999.90;;;999.90;;
43819;SDS011;67762;52.476;6.046;2023-05-08T05:36:49;1999.90;;;999.90;;
43819;SDS011;67762;52.476;6.046;2023-05-08T05:39:15;1999.90;;;999.90;;
43819;SDS011;67762;52.476;6.046;2023-05-08T05:41:40;1999.90;;;999.90;;
43819;SDS011;67762;52.476;6.046;2023-05-08T05:44:08;1999.90;;;999.90;;
43819;SDS011;67762;52.476;6.046;2023-05-08T05:46:35;1999.90;;;999.90;;
43819;SDS011;67762;52.476;6.046;2023-05-08T05:49:02;1999.90;;;999.90;;
43819;SDS011;67762;52.476;6.046;2023-05-08T05:51:28;1999.90;;;999.90;;
43819;SDS011;67762;52.476;6.046;2023-05-08T05:53:54;1999.90;;;999.90;;
43819;SDS011;67762;52.476;6.046;2023-05-08T05:56:20;1999.90;;;999.90;;
43819;SDS011;67762;52.476;6.046;2023-05-08T05:58:47;1999.90;;;999.90;;
43819;SDS011;67762;52.476;6.046;2023-05-08T06:01:13;1999.90;;;999.90;;
43819;SDS011;67762;52.476;6.046;2023-05-08T06:03:39;1999.90;;;999.90;;
43819;SDS011;67762;52.476;6.046;2023-05-08T06:06:05;1999.90;;;999.90;;
43819;SDS011;67762;52.476;6.046;2023-05-08T06:08:30;1999.90;;;999.90;;
43819;SDS011;67762;52.476;6.046;2023-05-08T06:10:56;1999.90;;;999.90;;
43819;SDS011;67762;52.476;6.046;2023-05-08T06:13:22;1999.90;;;999.90;;
43819;SDS011;67762;52.476;6.046;2023-05-08T06:15:49;1999.90;;;999.90;;
43819;SDS011;67762;52.476;6.046;2023-05-08T06:18:15;1999.90;;;999.90;;
43819;SDS011;67762;52.476;6.046;2023-05-08T06:20:41;1999.90;;;999.90;;
43819;SDS011;67762;52.476;6.046;2023-05-08T06:23:06;1999.90;;;999.90;;
43819;SDS011;67762;52.476;6.046;2023-05-08T06:25:32;1999.90;;;999.90;;
43819;SDS011;67762;52.476;6.046;2023-05-08T06:27:58;1999.90;;;999.90;;
43819;SDS011;67762;52.476;6.046;2023-05-08T06:30:23;1999.90;;;999.90;;
43819;SDS011;67762;52.476;6.046;2023-05-08T06:32:49;1999.90;;;999.90;;
43819;SDS011;67762;52.476;6.046;2023-05-08T06:35:15;1999.90;;;999.90;;
43819;SDS011;67762;52.476;6.046;2023-05-08T06:37:44;1999.90;;;999.90;;
43819;SDS011;67762;52.476;6.046;2023-05-08T06:40:10;1999.90;;;999.90;;
43819;SDS011;67762;52.476;6.046;2023-05-08T06:42:36;1999.90;;;999.90;;
43819;SDS011;67762;52.476;6.046;2023-05-08T06:45:02;1999.90;;;999.90;;
43819;SDS011;67762;52.476;6.046;2023-05-08T06:47:28;1999.90;;;999.90;;
43819;SDS011;67762;52.476;6.046;2023-05-08T06:49:54;1999.90;;;999.90;;
43819;SDS011;67762;52.476;6.046;2023-05-08T06:52:19;1999.90;;;999.90;;
43819;SDS011;67762;52.476;6.046;2023-05-08T06:54:45;1999.90;;;999.90;;
43819;SDS011;67762;52.476;6.046;2023-05-08T06:57:11;1999.90;;;999.90;;
43819;SDS011;67762;52.476;6.046;2023-05-08T06:59:39;1999.90;;;999.90;;
43819;SDS011;67762;52.476;6.046;2023-05-08T07:02:05;1999.90;;;999.90;;
43819;SDS011;67762;52.476;6.046;2023-05-08T07:04:30;1999.90;;;999.90;;
43819;SDS011;67762;52.476;6.046;2023-05-08T07:06:56;1999.90;;;999.90;;
43819;SDS011;67762;52.476;6.046;2023-05-08T07:09:21;1999.90;;;999.90;;
43819;SDS011;67762;52.476;6.046;2023-05-08T07:11:48;1999.90;;;999.90;;
43819;SDS011;67762;52.476;6.046;2023-05-08T07:14:13;1999.90;;;999.90;;
43819;SDS011;67762;52.476;6.046;2023-05-08T07:16:39;1999.90;;;999.90;;
43819;SDS011;67762;52.476;6.046;2023-05-08T07:19:04;1999.90;;;999.90;;
43819;SDS011;67762;52.476;6.046;2023-05-08T07:21:30;1999.90;;;999.90;;
43819;SDS011;67762;52.476;6.046;2023-05-08T07:23:56;1999.90;;;999.90;;
43819;SDS011;67762;52.476;6.046;2023-05-08T07:26:21;1999.90;;;999.90;;
43819;SDS011;67762;52.476;6.046;2023-05-08T07:28:47;1999.90;;;999.90;;
43819;SDS011;67762;52.476;6.046;2023-05-08T07:31:15;1999.90;;;999.90;;
43819;SDS011;67762;52.476;6.046;2023-05-08T07:33:40;1999.90;;;999.90;;
43819;SDS011;67762;52.476;6.046;2023-05-08T07:36:06;1999.90;;;999.90;;
43819;SDS011;67762;52.476;6.046;2023-05-08T07:38:32;1999.90;;;999.90;;
43819;SDS011;67762;52.476;6.046;2023-05-08T07:40:58;1999.90;;;999.90;;
43819;SDS011;67762;52.476;6.046;2023-05-08T07:43:25;1999.90;;;999.90;;
43819;SDS011;67762;52.476;6.046;2023-05-08T07:45:51;1999.90;;;999.90;;
43819;SDS011;67762;52.476;6.046;2023-05-08T07:48:17;1999.90;;;999.90;;
43819;SDS011;67762;52.476;6.046;2023-05-08T07:50:42;1999.90;;;999.90;;
43819;SDS011;67762;52.476;6.046;2023-05-08T07:53:09;1999.90;;;999.90;;
43819;SDS011;67762;52.476;6.046;2023-05-08T07:55:35;1999.90;;;999.90;;
43819;SDS011;67762;52.476;6.046;2023-05-08T07:58:00;1999.90;;;999.90;;
43819;SDS011;67762;52.476;6.046;2023-05-08T08:00:26;1999.90;;;999.90;;
43819;SDS011;67762;52.476;6.046;2023-05-08T08:02:53;1999.90;;;999.90;;
43819;SDS011;67762;52.476;6.046;2023-05-08T08:05:19;1999.90;;;999.90;;
43819;SDS011;67762;52.476;6.046;2023-05-08T08:07:45;1999.90;;;999.90;;
43819;SDS011;67762;52.476;6.046;2023-05-08T08:10:10;1999.90;;;999.90;;
43819;SDS011;67762;52.476;6.046;2023-05-08T08:12:36;1999.90;;;999.90;;
43819;SDS011;67762;52.476;6.046;2023-05-08T08:15:02;1999.90;;;999.90;;
43819;SDS011;67762;52.476;6.046;2023-05-08T08:17:29;1999.90;;;999.90;;
43819;SDS011;67762;52.476;6.046;2023-05-08T08:19:55;1999.90;;;999.90;;
43819;SDS011;67762;52.476;6.046;2023-05-08T08:22:21;1999.90;;;999.90;;
43819;SDS011;67762;52.476;6.046;2023-05-08T08:24:47;1999.90;;;999.90;;
43819;SDS011;67762;52.476;6.046;2023-05-08T08:27:13;1999.90;;;999.90;;
43819;SDS011;67762;52.476;6.046;2023-05-08T08:29:39;1999.90;;;999.90;;
43819;SDS011;67762;52.476;6.046;2023-05-08T08:32:04;1999.90;;;999.90;;
43819;SDS011;67762;52.476;6.046;2023-05-08T08:34:34;1999.90;;;999.90;;
43819;SDS011;67762;52.476;6.046;2023-05-08T08:36:59;1999.90;;;999.90;;
43819;SDS011;67762;52.476;6.046;2023-05-08T08:39:26;1999.90;;;999.90;;
43819;SDS011;67762;52.476;6.046;2023-05-08T08:41:51;1999.90;;;999.90;;
43819;SDS011;67762;52.476;6.046;2023-05-08T08:44:17;1999.90;;;999.90;;
43819;SDS011;67762;52.476;6.046;2023-05-08T08:46:43;1999.90;;;999.90;;
43819;SDS011;67762;52.476;6.046;2023-05-08T08:49:28;1999.90;;;999.90;;
43819;SDS011;67762;52.476;6.046;2023-05-08T08:52:05;1999.90;;;999.90;;
43819;SDS011;67762;52.476;6.046;2023-05-08T08:54:35;1999.90;;;999.90;;
43819;SDS011;67762;52.476;6.046;2023-05-08T08:57:04;1999.90;;;999.90;;
43819;SDS011;67762;52.476;6.046;2023-05-08T08:59:33;1999.90;;;999.90;;
43819;SDS011;67762;52.476;6.046;2023-05-08T09:02:12;1999.90;;;999.90;;
43819;SDS011;67762;52.476;6.046;2023-05-08T09:04:42;1999.90;;;999.90;;
43819;SDS011;67762;52.476;6.046;2023-05-08T09:07:08;1999.90;;;999.90;;
43819;SDS011;67762;52.476;6.046;2023-05-08T09:09:38;1999.90;;;999.90;;
43819;SDS011;67762;52.476;6.046;2023-05-08T09:12:05;1999.90;;;999.90;;
43819;SDS011;67762;52.476;6.046;2023-05-08T09:14:31;1999.90;;;999.90;;
43819;SDS011;67762;52.476;6.046;2023-05-08T09:16:57;1999.90;;;999.90;;
43819;SDS011;67762;52.476;6.046;2023-05-08T09:19:23;1999.90;;;999.90;;
43819;SDS011;67762;52.476;6.046;2023-05-08T09:21:50;1999.90;;;999.90;;
43819;SDS011;67762;52.476;6.046;2023-05-08T09:24:17;1999.90;;;999.90;;
43819;SDS011;67762;52.476;6.046;2023-05-08T09:26:42;1999.90;;;999.90;;
43819;SDS011;67762;52.476;6.046;2023-05-08T09:29:08;1999.90;;;999.90;;
43819;SDS011;67762;52.476;6.046;2023-05-08T09:31:40;1999.90;;;999.90;;
43819;SDS011;67762;52.476;6.046;2023-05-08T09:34:07;1999.90;;;999.90;;
43819;SDS011;67762;52.476;6.046;2023-05-08T09:36:34;1999.90;;;999.90;;
43819;SDS011;67762;52.476;6.046;2023-05-08T09:39:00;1999.90;;;999.90;;
43819;SDS011;67762;52.476;6.046;2023-05-08T09:41:27;1999.90;;;999.90;;
43819;SDS011;67762;52.476;6.046;2023-05-08T09:44:03;1999.90;;;999.90;;
43819;SDS011;67762;52.476;6.046;2023-05-08T09:46:29;1999.90;;;999.90;;
43819;SDS011;67762;52.476;6.046;2023-05-08T09:48:59;1999.90;;;999.90;;
43819;SDS011;67762;52.476;6.046;2023-05-08T09:51:26;1999.90;;;999.90;;
43819;SDS011;67762;52.476;6.046;2023-05-08T09:53:54;1999.90;;;999.90;;
43819;SDS011;67762;52.476;6.046;2023-05-08T09:56:31;1999.90;;;999.90;;
43819;SDS011;67762;52.476;6.046;2023-05-08T09:59:03;1999.90;;;999.90;;
43819;SDS011;67762;52.476;6.046;2023-05-08T10:01:45;1999.90;;;999.90;;
43819;SDS011;67762;52.476;6.046;2023-05-08T10:04:13;1999.90;;;999.90;;
43819;SDS011;67762;52.476;6.046;2023-05-08T10:06:39;1999.90;;;999.90;;
43819;SDS011;67762;52.476;6.046;2023-05-08T10:09:12;1540.25;;;786.95;;
43819;SDS011;67762;52.476;6.046;2023-05-08T10:11:39;1999.90;;;999.90;;
43819;SDS011;67762;52.476;6.046;2023-05-08T10:14:06;1999.90;;;999.90;;
43819;SDS011;67762;52.476;6.046;2023-05-08T10:16:38;1999.90;;;999.90;;
43819;SDS011;67762;52.476;6.046;2023-05-08T10:19:17;1999.90;;;999.90;;
43819;SDS011;67762;52.476;6.046;2023-05-08T10:21:45;1999.90;;;999.90;;
43819;SDS011;67762;52.476;6.046;2023-05-08T10:24:13;1999.90;;;999.90;;
43819;SDS011;67762;52.476;6.046;2023-05-08T10:26:41;1999.90;;;999.90;;
43819;SDS011;67762;52.476;6.046;2023-05-08T10:29:12;1999.90;;;999.90;;
43819;SDS011;67762;52.476;6.046;2023-05-08T10:31:43;1999.90;;;999.90;;
43819;SDS011;67762;52.476;6.046;2023-05-08T10:34:12;1999.90;;;999.90;;
43819;SDS011;67762;52.476;6.046;2023-05-08T10:36:43;1999.90;;;999.90;;
43819;SDS011;67762;52.476;6.046;2023-05-08T10:39:08;1999.90;;;999.90;;
43819;SDS011;67762;52.476;6.046;2023-05-08T10:41:35;1999.90;;;999.90;;
43819;SDS011;67762;52.476;6.046;2023-05-08T10:44:02;1999.90;;;999.90;;
43819;SDS011;67762;52.476;6.046;2023-05-08T10:57:17;1999.90;;;999.90;;
43819;SDS011;67762;52.476;6.046;2023-05-08T10:59:44;1999.90;;;999.90;;
43819;SDS011;67762;52.476;6.046;2023-05-08T11:02:11;1999.90;;;999.90;;
43819;SDS011;67762;52.476;6.046;2023-05-08T11:04:37;1999.90;;;999.90;;
43819;SDS011;67762;52.476;6.046;2023-05-08T11:07:03;1999.90;;;999.90;;
43819;SDS011;67762;52.476;6.046;2023-05-08T11:09:50;1999.90;;;999.90;;
43819;SDS011;67762;52.476;6.046;2023-05-08T11:12:25;1999.90;;;999.90;;
43819;SDS011;67762;52.476;6.046;2023-05-08T11:14:53;1999.90;;;999.90;;
43819;SDS011;67762;52.476;6.046;2023-05-08T11:17:22;1999.90;;;999.90;;
43819;SDS011;67762;52.476;6.046;2023-05-08T11:19:56;1999.90;;;999.90;;
43819;SDS011;67762;52.476;6.046;2023-05-08T11:22:27;1999.90;;;999.90;;
43819;SDS011;67762;52.476;6.046;2023-05-08T11:25:04;1999.90;;;999.90;;
43819;SDS011;67762;52.476;6.046;2023-05-08T11:35:42;1999.90;;;999.90;;
43819;SDS011;67762;52.476;6.046;2023-05-08T11:38:19;1999.90;;;999.90;;
43819;SDS011;67762;52.476;6.046;2023-05-08T11:40:48;1999.90;;;999.90;;
43819;SDS011;67762;52.476;6.046;2023-05-08T11:46:00;1999.90;;;999.90;;
43819;SDS011;67762;52.476;6.046;2023-05-08T11:48:33;1999.90;;;999.90;;
43819;SDS011;67762;52.476;6.046;2023-05-08T11:51:00;1999.90;;;999.90;;
43819;SDS011;67762;52.476;6.046;2023-05-08T11:53:27;1999.90;;;999.90;;
43819;SDS011;67762;52.476;6.046;2023-05-08T11:55:57;1999.90;;;999.90;;
43819;SDS011;67762;52.476;6.046;2023-05-08T11:58:24;1999.90;;;999.90;;
43819;SDS011;67762;52.476;6.046;2023-05-08T12:00:49;1999.90;;;999.90;;
43819;SDS011;67762;52.476;6.046;2023-05-08T12:03:19;1999.90;;;999.90;;
43819;SDS011;67762;52.476;6.046;2023-05-08T12:05:47;1999.90;;;999.90;;
43819;SDS011;67762;52.476;6.046;2023-05-08T12:08:15;1999.90;;;999.90;;
43819;SDS011;67762;52.476;6.046;2023-05-08T12:13:14;1999.90;;;999.90;;
43819;SDS011;67762;52.476;6.046;2023-05-08T12:15:44;1999.90;;;999.90;;
43819;SDS011;67762;52.476;6.046;2023-05-08T12:18:10;1999.90;;;999.90;;
43819;SDS011;67762;52.476;6.046;2023-05-08T12:20:36;1999.90;;;999.90;;
43819;SDS011;67762;52.476;6.046;2023-05-08T12:23:02;1999.90;;;999.90;;
43819;SDS011;67762;52.476;6.046;2023-05-08T12:25:28;1999.90;;;999.90;;
43819;SDS011;67762;52.476;6.046;2023-05-08T12:27:54;1999.90;;;999.90;;
43819;SDS011;67762;52.476;6.046;2023-05-08T12:30:20;1999.90;;;999.90;;
43819;SDS011;67762;52.476;6.046;2023-05-08T12:32:46;1999.90;;;999.90;;
43819;SDS011;67762;52.476;6.046;2023-05-08T12:35:13;1999.90;;;999.90;;
43819;SDS011;67762;52.476;6.046;2023-05-08T12:37:40;1999.90;;;999.90;;
43819;SDS011;67762;52.476;6.046;2023-05-08T12:40:06;1999.90;;;999.90;;
43819;SDS011;67762;52.476;6.046;2023-05-08T12:42:47;1999.90;;;999.90;;
43819;SDS011;67762;52.476;6.046;2023-05-08T12:47:47;1999.90;;;999.90;;
43819;SDS011;67762;52.476;6.046;2023-05-08T12:50:14;1999.90;;;999.90;;
43819;SDS011;67762;52.476;6.046;2023-05-08T12:52:41;56.45;;;51.95;;
43819;SDS011;67762;52.476;6.046;2023-05-08T12:57:58;540.72;;;287.88;;
43819;SDS011;67762;52.476;6.046;2023-05-08T13:03:07;62.88;;;57.85;;
43819;SDS011;67762;52.476;6.046;2023-05-08T13:05:35;1999.90;;;999.90;;
43819;SDS011;67762;52.476;6.046;2023-05-08T13:08:02;60.63;;;56.28;;
43819;SDS011;67762;52.476;6.046;2023-05-08T13:13:18;104.78;;;95.82;;
43819;SDS011;67762;52.476;6.046;2023-05-08T13:15:48;192.80;;;178.43;;
43819;SDS011;67762;52.476;6.046;2023-05-08T13:18:15;243.27;;;226.20;;
43819;SDS011;67762;52.476;6.046;2023-05-08T13:20:42;122.50;;;112.70;;
43819;SDS011;67762;52.476;6.046;2023-05-08T13:23:08;96.82;;;87.90;;
43819;SDS011;67762;52.476;6.046;2023-05-08T13:25:35;149.10;;;136.82;;
43819;SDS011;67762;52.476;6.046;2023-05-08T13:28:01;128.90;;;117.85;;
43819;SDS011;67762;52.476;6.046;2023-05-08T13:30:28;1999.90;;;999.90;;
43819;SDS011;67762;52.476;6.046;2023-05-08T13:32:53;1999.90;;;999.90;;
43819;SDS011;67762;52.476;6.046;2023-05-08T13:35:19;1999.90;;;999.90;;
43819;SDS011;67762;52.476;6.046;2023-05-08T13:37:46;1999.90;;;999.90;;
43819;SDS011;67762;52.476;6.046;2023-05-08T13:40:12;1999.90;;;999.90;;
43819;SDS011;67762;52.476;6.046;2023-05-08T13:42:38;1999.90;;;999.90;;
43819;SDS011;67762;52.476;6.046;2023-05-08T13:45:05;1511.57;;;760.78;;
43819;SDS011;67762;52.476;6.046;2023-05-08T13:47:31;1999.90;;;999.90;;
43819;SDS011;67762;52.476;6.046;2023-05-08T13:49:57;1999.90;;;999.90;;
43819;SDS011;67762;52.476;6.046;2023-05-08T13:52:23;1999.90;;;999.90;;
43819;SDS011;67762;52.476;6.046;2023-05-08T13:54:49;1999.90;;;999.90;;
43819;SDS011;67762;52.476;6.046;2023-05-08T13:57:15;1999.90;;;999.90;;
43819;SDS011;67762;52.476;6.046;2023-05-08T13:59:40;1999.90;;;999.90;;
43819;SDS011;67762;52.476;6.046;2023-05-08T14:02:06;1999.90;;;999.90;;
43819;SDS011;67762;52.476;6.046;2023-05-08T14:04:32;1999.90;;;999.90;;
43819;SDS011;67762;52.476;6.046;2023-05-08T14:06:58;1999.90;;;999.90;;
43819;SDS011;67762;52.476;6.046;2023-05-08T14:09:23;1999.90;;;999.90;;
43819;SDS011;67762;52.476;6.046;2023-05-08T14:11:49;1999.90;;;999.90;;
43819;SDS011;67762;52.476;6.046;2023-05-08T14:14:15;1999.90;;;999.90;;
43819;SDS011;67762;52.476;6.046;2023-05-08T14:16:40;1999.90;;;999.90;;
43819;SDS011;67762;52.476;6.046;2023-05-08T14:19:06;1999.90;;;999.90;;
43819;SDS011;67762;52.476;6.046;2023-05-08T14:21:32;1999.90;;;999.90;;
43819;SDS011;67762;52.476;6.046;2023-05-08T14:23:58;1999.90;;;999.90;;
43819;SDS011;67762;52.476;6.046;2023-05-08T14:26:25;1999.90;;;999.90;;
43819;SDS011;67762;52.476;6.046;2023-05-08T14:28:51;1999.90;;;999.90;;
43819;SDS011;67762;52.476;6.046;2023-05-08T14:31:16;1999.90;;;999.90;;
43819;SDS011;67762;52.476;6.046;2023-05-08T14:33:42;1999.90;;;999.90;;
43819;SDS011;67762;52.476;6.046;2023-05-08T14:36:08;1999.90;;;999.90;;
43819;SDS011;67762;52.476;6.046;2023-05-08T14:38:34;1999.90;;;999.90;;
43819;SDS011;67762;52.476;6.046;2023-05-08T14:40:59;1999.90;;;999.90;;
43819;SDS011;67762;52.476;6.046;2023-05-08T14:43:25;1999.90;;;999.90;;
43819;SDS011;67762;52.476;6.046;2023-05-08T14:45:51;1999.90;;;999.90;;
43819;SDS011;67762;52.476;6.046;2023-05-08T14:48:16;1999.90;;;999.90;;
43819;SDS011;67762;52.476;6.046;2023-05-08T14:50:42;1999.90;;;999.90;;
43819;SDS011;67762;52.476;6.046;2023-05-08T14:53:08;1999.90;;;999.90;;
43819;SDS011;67762;52.476;6.046;2023-05-08T14:55:33;1999.90;;;999.90;;
43819;SDS011;67762;52.476;6.046;2023-05-08T14:57:59;1999.90;;;999.90;;